ADDS METAR Data INFO
IDs: Format: Raw Decoded Include TAF

Data at: 2112 UTC 20 Nov 2017

KBPI 202053Z AUTO 04004KT 10SM SCT120 01/M06 A3003 RMK AO2 SLP203 T00111061 56014
KBPI 201953Z AUTO 00000KT 10SM OVC110 00/M08 A3003 RMK AO2 SLP212 T00001078
KBPI 201853Z AUTO 00000KT 10SM CLR M01/M07 A3006 RMK AO2 SLP221 T10111072
KBPI 201753Z AUTO 09004KT 10SM CLR M03/M08 A3008 RMK AO2 SLP231 T10281078 11028 21117 53005
KBPI 201653Z AUTO 20003KT 10SM BKN055 M04/M08 A3007 RMK AO2 SLP231 T10441083
KBPI 201553Z AUTO 00000KT 10SM BKN060 M07/M09 A3006 RMK AO2 SLP232 T10671094
KBPI 201453Z AUTO 24003KT 10SM BKN060 BKN120 M09/M12 A3006 RMK AO2 SLP232 T10941117 53004
KBPI 201353Z AUTO 28005KT 10SM CLR M11/M13 A3004 RMK AO2 SLP232 T11111128
KBPI 201253Z AUTO 10004KT 10SM SCT110 M11/M12 A3002 RMK AO2 PRESFR SLP218 T11061122 $
KBPI 201153Z AUTO 00000KT 10SM FEW090 SCT120 M12/M13 A3004 RMK AO2 SLP220 T11171133 11117 21161 53000 $
KBPI 201053Z AUTO 19003KT 10SM BKN090 M13/M14 A3002 RMK AO2 SLP203 T11281144 $
KBPI 200953Z AUTO 06006KT 10SM CLR M13/M15 A3004 RMK AO2 SLP213 T11331150 $
KBPI 200853Z AUTO 34005KT 10SM CLR M15/M17 A3004 RMK AO2 SLP219 T11501167 58006 $
KBPI 200753Z AUTO 00000KT 10SM CLR M16/M17 A3005 RMK AO2 SLP230 T11561167 $
KBPI 200653Z AUTO 08004KT 10SM CLR M15/M17 A3007 RMK AO2 SLP242 T11501167 400001161 $
KBPI 200553Z AUTO 13003KT 10SM CLR M14/M15 A3007 RMK AO2 SLP241 T11391150 11056 21139 56005 $
KBPI 200453Z AUTO 00000KT 10SM CLR M13/M14 A3007 RMK AO2 SLP245 T11281139 $
KBPI 200353Z AUTO 00000KT 10SM CLR M12/M13 A3008 RMK AO2 SLP256 T11221133 $
KBPI 200253Z AUTO 00000KT 10SM CLR M10/M12 A3009 RMK AO2 SLP261 T11001117 58003 $
KBPI 200153Z AUTO 00000KT 10SM CLR M10/M12 A3010 RMK AO2 SLP263 T11001122 $
KBPI 200053Z AUTO 35006KT 10SM CLR M09/M12 A3010 RMK AO2 SLP261 T10891117 $
KBPI 192353Z AUTO 32007KT 10SM CLR M06/M09 A3010 RMK AO2 SLP252 T10561089 10000 21072 56010 $
KBPI 192253Z AUTO 00000KT 10SM CLR M01/M07 A3011 RMK AO2 SLP238 T10061072 $
KBPI 192153Z AUTO 00000KT 10SM CLR M01/M08 A3010 RMK AO2 SLP237 T10111078 $
KBPI 192053Z AUTO 26004KT 10SM CLR M02/M08 A3013 RMK AO2 SLP255 T10221083 56023 $
KBPI 191953Z AUTO 36003KT 10SM CLR M04/M08 A3016 RMK AO2 SLP266 T10391083 $
KBPI 191853Z AUTO 31004KT 10SM CLR M06/M09 A3019 RMK AO2 SLP284 T10611089 $
KBPI 191753Z AUTO 26004KT 10SM CLR M08/M10 A3022 RMK AO2 SLP302 T10781100 11072 21161 58007 $
KBPI 191653Z AUTO 00000KT 10SM CLR M10/M12 A3023 RMK AO2 SLP311 T11001117 $
KBPI 191553Z AUTO 00000KT 10SM CLR M13/M14 A3024 RMK AO2 SLP315 T11281144 $
KBPI 191453Z AUTO 00000KT 10SM CLR M16/M18 A3024 RMK AO2 SLP324 T11561178 56008 $
KBPI 191353Z AUTO 08003KT 10SM CLR M14/M17 A3024 RMK AO2 SLP315 T11441167 $
KBPI 191253Z AUTO 07004KT 10SM CLR M15/M17 A3026 RMK AO2 SLP320 T11501172 $
KBPI 191153Z AUTO 09005KT 10SM CLR M16/M18 A3027 RMK AO2 SLP311 T11611178 11144 21161 58009 $
KBPI 191053Z AUTO 00000KT 10SM CLR M16/M17 A3028 RMK AO2 SLP308 T11561172 $
KBPI 190953Z AUTO 34008KT 10SM CLR M15/M17 A3030 RMK AO2 SLP314 T11501167 $